sensor_id;sensor_type;location;lat;lon;timestamp;P1;durP1;ratioP1;P2;durP2;ratioP2
52468;SDS011;38381;53.688;10.776;2022-12-20T00:00:19;21.23;;;16.43;;
52468;SDS011;38381;53.688;10.776;2022-12-20T00:05:20;22.33;;;16.65;;
52468;SDS011;38381;53.688;10.776;2022-12-20T00:10:20;21.20;;;17.17;;
52468;SDS011;38381;53.688;10.776;2022-12-20T00:15:20;19.17;;;14.80;;
52468;SDS011;38381;53.688;10.776;2022-12-20T00:20:21;20.60;;;16.40;;
52468;SDS011;38381;53.688;10.776;2022-12-20T00:25:21;21.02;;;17.73;;
52468;SDS011;38381;53.688;10.776;2022-12-20T00:30:22;20.67;;;16.45;;
52468;SDS011;38381;53.688;10.776;2022-12-20T00:35:22;23.23;;;16.52;;
52468;SDS011;38381;53.688;10.776;2022-12-20T00:40:23;20.58;;;14.93;;
52468;SDS011;38381;53.688;10.776;2022-12-20T00:45:23;19.38;;;16.88;;
52468;SDS011;38381;53.688;10.776;2022-12-20T00:50:24;19.58;;;16.50;;
52468;SDS011;38381;53.688;10.776;2022-12-20T00:55:24;22.58;;;17.55;;
52468;SDS011;38381;53.688;10.776;2022-12-20T01:00:24;18.65;;;15.52;;
52468;SDS011;38381;53.688;10.776;2022-12-20T01:05:25;23.27;;;13.68;;
52468;SDS011;38381;53.688;10.776;2022-12-20T01:10:25;21.90;;;17.45;;
52468;SDS011;38381;53.688;10.776;2022-12-20T01:15:26;23.65;;;18.42;;
52468;SDS011;38381;53.688;10.776;2022-12-20T01:20:27;21.73;;;14.48;;
52468;SDS011;38381;53.688;10.776;2022-12-20T01:25:28;18.58;;;15.13;;
52468;SDS011;38381;53.688;10.776;2022-12-20T01:30:28;18.87;;;15.40;;
52468;SDS011;38381;53.688;10.776;2022-12-20T01:35:29;18.95;;;13.98;;
52468;SDS011;38381;53.688;10.776;2022-12-20T01:40:29;18.93;;;13.37;;
52468;SDS011;38381;53.688;10.776;2022-12-20T01:45:29;18.23;;;15.88;;
52468;SDS011;38381;53.688;10.776;2022-12-20T01:50:30;18.63;;;13.98;;
52468;SDS011;38381;53.688;10.776;2022-12-20T01:55:31;19.88;;;14.13;;
52468;SDS011;38381;53.688;10.776;2022-12-20T02:00:32;15.52;;;13.27;;
52468;SDS011;38381;53.688;10.776;2022-12-20T02:05:34;19.83;;;13.93;;
52468;SDS011;38381;53.688;10.776;2022-12-20T02:10:47;18.45;;;15.73;;
52468;SDS011;38381;53.688;10.776;2022-12-20T02:15:59;18.02;;;13.57;;
52468;SDS011;38381;53.688;10.776;2022-12-20T02:31:36;16.45;;;14.02;;
52468;SDS011;38381;53.688;10.776;2022-12-20T02:36:40;16.88;;;13.48;;
52468;SDS011;38381;53.688;10.776;2022-12-20T02:41:42;18.33;;;15.00;;
52468;SDS011;38381;53.688;10.776;2022-12-20T02:46:46;20.52;;;14.77;;
52468;SDS011;38381;53.688;10.776;2022-12-20T02:51:49;17.95;;;14.25;;
52468;SDS011;38381;53.688;10.776;2022-12-20T02:56:58;15.07;;;12.27;;
52468;SDS011;38381;53.688;10.776;2022-12-20T03:02:02;15.90;;;14.25;;
52468;SDS011;38381;53.688;10.776;2022-12-20T03:07:10;18.73;;;14.75;;
52468;SDS011;38381;53.688;10.776;2022-12-20T03:12:13;16.40;;;13.70;;
52468;SDS011;38381;53.688;10.776;2022-12-20T03:17:15;15.50;;;13.73;;
52468;SDS011;38381;53.688;10.776;2022-12-20T03:22:15;19.88;;;13.63;;
52468;SDS011;38381;53.688;10.776;2022-12-20T03:27:15;18.67;;;15.30;;
52468;SDS011;38381;53.688;10.776;2022-12-20T03:32:16;16.63;;;14.82;;
52468;SDS011;38381;53.688;10.776;2022-12-20T03:37:16;14.43;;;11.85;;
52468;SDS011;38381;53.688;10.776;2022-12-20T03:42:17;14.43;;;12.98;;
52468;SDS011;38381;53.688;10.776;2022-12-20T03:47:17;16.15;;;12.70;;
52468;SDS011;38381;53.688;10.776;2022-12-20T03:52:18;16.10;;;12.50;;
52468;SDS011;38381;53.688;10.776;2022-12-20T03:57:18;20.27;;;14.15;;
52468;SDS011;38381;53.688;10.776;2022-12-20T04:02:19;14.45;;;12.52;;
52468;SDS011;38381;53.688;10.776;2022-12-20T04:07:20;16.83;;;14.50;;
52468;SDS011;38381;53.688;10.776;2022-12-20T04:12:20;16.55;;;14.40;;
52468;SDS011;38381;53.688;10.776;2022-12-20T04:17:21;19.33;;;14.00;;
52468;SDS011;38381;53.688;10.776;2022-12-20T04:22:21;17.77;;;14.33;;
52468;SDS011;38381;53.688;10.776;2022-12-20T04:27:21;24.50;;;15.73;;
52468;SDS011;38381;53.688;10.776;2022-12-20T04:32:22;17.15;;;13.57;;
52468;SDS011;38381;53.688;10.776;2022-12-20T04:37:22;21.10;;;15.90;;
52468;SDS011;38381;53.688;10.776;2022-12-20T04:42:23;17.60;;;13.88;;
52468;SDS011;38381;53.688;10.776;2022-12-20T04:47:24;17.08;;;14.45;;
52468;SDS011;38381;53.688;10.776;2022-12-20T04:52:25;16.42;;;14.15;;
52468;SDS011;38381;53.688;10.776;2022-12-20T04:57:44;18.67;;;14.70;;
52468;SDS011;38381;53.688;10.776;2022-12-20T05:02:44;16.33;;;13.77;;
52468;SDS011;38381;53.688;10.776;2022-12-20T05:07:45;18.48;;;14.48;;
52468;SDS011;38381;53.688;10.776;2022-12-20T05:12:46;20.10;;;15.20;;
52468;SDS011;38381;53.688;10.776;2022-12-20T05:17:46;17.50;;;15.55;;
52468;SDS011;38381;53.688;10.776;2022-12-20T05:22:47;17.83;;;14.57;;
52468;SDS011;38381;53.688;10.776;2022-12-20T05:28:06;16.40;;;13.20;;
52468;SDS011;38381;53.688;10.776;2022-12-20T05:33:06;16.73;;;14.30;;
52468;SDS011;38381;53.688;10.776;2022-12-20T05:38:06;17.67;;;13.43;;
52468;SDS011;38381;53.688;10.776;2022-12-20T05:43:08;18.65;;;15.13;;
52468;SDS011;38381;53.688;10.776;2022-12-20T05:48:08;19.30;;;15.27;;
52468;SDS011;38381;53.688;10.776;2022-12-20T05:53:10;16.40;;;14.13;;
52468;SDS011;38381;53.688;10.776;2022-12-20T05:58:11;20.90;;;16.50;;
52468;SDS011;38381;53.688;10.776;2022-12-20T06:03:14;16.60;;;13.05;;
52468;SDS011;38381;53.688;10.776;2022-12-20T06:08:16;21.13;;;16.63;;
52468;SDS011;38381;53.688;10.776;2022-12-20T06:13:16;18.50;;;14.45;;
52468;SDS011;38381;53.688;10.776;2022-12-20T06:18:17;20.55;;;14.73;;
52468;SDS011;38381;53.688;10.776;2022-12-20T06:23:18;20.52;;;15.18;;
52468;SDS011;38381;53.688;10.776;2022-12-20T06:28:19;19.73;;;15.80;;
52468;SDS011;38381;53.688;10.776;2022-12-20T06:33:21;23.73;;;17.53;;
52468;SDS011;38381;53.688;10.776;2022-12-20T06:38:21;25.13;;;16.10;;
52468;SDS011;38381;53.688;10.776;2022-12-20T06:43:22;20.17;;;15.68;;
52468;SDS011;38381;53.688;10.776;2022-12-20T06:48:22;21.20;;;16.40;;
52468;SDS011;38381;53.688;10.776;2022-12-20T06:53:23;21.55;;;16.30;;
52468;SDS011;38381;53.688;10.776;2022-12-20T06:58:23;22.52;;;16.88;;
52468;SDS011;38381;53.688;10.776;2022-12-20T07:03:23;20.38;;;18.23;;
52468;SDS011;38381;53.688;10.776;2022-12-20T07:08:24;19.77;;;15.98;;
52468;SDS011;38381;53.688;10.776;2022-12-20T07:13:26;24.50;;;16.95;;
52468;SDS011;38381;53.688;10.776;2022-12-20T07:18:27;22.73;;;17.45;;
52468;SDS011;38381;53.688;10.776;2022-12-20T07:23:27;22.85;;;18.95;;
52468;SDS011;38381;53.688;10.776;2022-12-20T07:28:27;19.48;;;15.73;;
52468;SDS011;38381;53.688;10.776;2022-12-20T07:33:28;21.00;;;16.27;;
52468;SDS011;38381;53.688;10.776;2022-12-20T07:38:30;27.02;;;19.15;;
52468;SDS011;38381;53.688;10.776;2022-12-20T07:43:30;23.17;;;18.52;;
52468;SDS011;38381;53.688;10.776;2022-12-20T07:48:31;22.53;;;16.37;;
52468;SDS011;38381;53.688;10.776;2022-12-20T07:53:33;22.40;;;16.48;;
52468;SDS011;38381;53.688;10.776;2022-12-20T07:58:38;25.65;;;19.27;;
52468;SDS011;38381;53.688;10.776;2022-12-20T08:03:43;24.02;;;18.25;;
52468;SDS011;38381;53.688;10.776;2022-12-20T08:08:48;21.73;;;17.13;;
52468;SDS011;38381;53.688;10.776;2022-12-20T08:13:52;26.67;;;17.73;;
52468;SDS011;38381;53.688;10.776;2022-12-20T08:18:53;20.67;;;16.42;;
52468;SDS011;38381;53.688;10.776;2022-12-20T08:23:53;20.23;;;15.52;;
52468;SDS011;38381;53.688;10.776;2022-12-20T08:28:54;22.23;;;16.90;;
52468;SDS011;38381;53.688;10.776;2022-12-20T08:33:55;21.08;;;15.32;;
52468;SDS011;38381;53.688;10.776;2022-12-20T08:38:56;22.98;;;17.05;;
52468;SDS011;38381;53.688;10.776;2022-12-20T08:43:56;21.55;;;16.27;;
52468;SDS011;38381;53.688;10.776;2022-12-20T08:48:56;25.83;;;17.55;;
52468;SDS011;38381;53.688;10.776;2022-12-20T08:53:57;21.50;;;16.38;;
52468;SDS011;38381;53.688;10.776;2022-12-20T08:58:57;20.58;;;15.90;;
52468;SDS011;38381;53.688;10.776;2022-12-20T09:03:58;18.50;;;16.48;;
52468;SDS011;38381;53.688;10.776;2022-12-20T09:08:58;21.67;;;16.95;;
52468;SDS011;38381;53.688;10.776;2022-12-20T09:13:59;23.83;;;16.92;;
52468;SDS011;38381;53.688;10.776;2022-12-20T09:19:00;18.92;;;15.50;;
52468;SDS011;38381;53.688;10.776;2022-12-20T09:24:01;18.43;;;15.77;;
52468;SDS011;38381;53.688;10.776;2022-12-20T09:29:02;21.85;;;18.00;;
52468;SDS011;38381;53.688;10.776;2022-12-20T09:34:03;19.08;;;15.35;;
52468;SDS011;38381;53.688;10.776;2022-12-20T09:39:03;16.40;;;13.60;;
52468;SDS011;38381;53.688;10.776;2022-12-20T09:49:29;17.75;;;13.82;;
52468;SDS011;38381;53.688;10.776;2022-12-20T10:00:14;21.13;;;14.90;;
52468;SDS011;38381;53.688;10.776;2022-12-20T10:10:51;17.23;;;14.23;;
52468;SDS011;38381;53.688;10.776;2022-12-20T10:15:57;17.37;;;13.67;;
52468;SDS011;38381;53.688;10.776;2022-12-20T10:26:39;17.65;;;13.65;;
52468;SDS011;38381;53.688;10.776;2022-12-20T10:31:40;17.17;;;12.90;;
52468;SDS011;38381;53.688;10.776;2022-12-20T10:36:41;15.55;;;12.77;;
52468;SDS011;38381;53.688;10.776;2022-12-20T10:46:50;17.10;;;13.10;;
52468;SDS011;38381;53.688;10.776;2022-12-20T10:51:54;12.18;;;10.88;;
52468;SDS011;38381;53.688;10.776;2022-12-20T11:02:23;15.60;;;12.13;;
52468;SDS011;38381;53.688;10.776;2022-12-20T11:07:30;13.40;;;11.07;;
52468;SDS011;38381;53.688;10.776;2022-12-20T11:12:31;16.75;;;11.70;;
52468;SDS011;38381;53.688;10.776;2022-12-20T11:17:34;12.95;;;11.18;;
52468;SDS011;38381;53.688;10.776;2022-12-20T11:22:49;12.88;;;11.23;;
52468;SDS011;38381;53.688;10.776;2022-12-20T11:33:47;10.82;;;9.57;;
52468;SDS011;38381;53.688;10.776;2022-12-20T11:39:14;13.35;;;10.88;;
52468;SDS011;38381;53.688;10.776;2022-12-20T11:44:45;12.55;;;10.25;;
52468;SDS011;38381;53.688;10.776;2022-12-20T11:50:33;11.88;;;10.00;;
52468;SDS011;38381;53.688;10.776;2022-12-20T11:55:42;12.68;;;10.52;;
52468;SDS011;38381;53.688;10.776;2022-12-20T12:00:49;15.48;;;10.60;;
52468;SDS011;38381;53.688;10.776;2022-12-20T12:05:59;14.02;;;10.27;;
52468;SDS011;38381;53.688;10.776;2022-12-20T12:11:18;13.43;;;9.65;;
52468;SDS011;38381;53.688;10.776;2022-12-20T12:16:28;10.88;;;9.73;;
52468;SDS011;38381;53.688;10.776;2022-12-20T12:21:43;23.83;;;11.68;;
52468;SDS011;38381;53.688;10.776;2022-12-20T12:26:48;13.88;;;9.93;;
52468;SDS011;38381;53.688;10.776;2022-12-20T12:31:51;14.18;;;9.30;;
52468;SDS011;38381;53.688;10.776;2022-12-20T12:47:39;11.98;;;8.50;;
52468;SDS011;38381;53.688;10.776;2022-12-20T12:52:48;10.73;;;8.55;;
52468;SDS011;38381;53.688;10.776;2022-12-20T12:57:55;8.20;;;6.97;;
52468;SDS011;38381;53.688;10.776;2022-12-20T13:02:57;16.02;;;9.10;;
52468;SDS011;38381;53.688;10.776;2022-12-20T13:07:57;10.57;;;8.63;;
52468;SDS011;38381;53.688;10.776;2022-12-20T13:13:00;10.35;;;9.32;;
52468;SDS011;38381;53.688;10.776;2022-12-20T13:23:14;11.93;;;9.38;;
52468;SDS011;38381;53.688;10.776;2022-12-20T13:33:23;11.25;;;8.77;;
52468;SDS011;38381;53.688;10.776;2022-12-20T13:43:50;11.40;;;8.98;;
52468;SDS011;38381;53.688;10.776;2022-12-20T13:48:52;12.50;;;9.00;;
52468;SDS011;38381;53.688;10.776;2022-12-20T13:53:59;11.50;;;9.13;;
52468;SDS011;38381;53.688;10.776;2022-12-20T13:59:13;11.88;;;8.90;;
52468;SDS011;38381;53.688;10.776;2022-12-20T14:04:18;9.18;;;8.27;;
52468;SDS011;38381;53.688;10.776;2022-12-20T14:09:53;10.30;;;8.60;;
52468;SDS011;38381;53.688;10.776;2022-12-20T14:14:47;9.45;;;8.45;;
52468;SDS011;38381;53.688;10.776;2022-12-20T14:20:31;11.35;;;8.13;;
52468;SDS011;38381;53.688;10.776;2022-12-20T14:25:15;11.10;;;8.10;;
52468;SDS011;38381;53.688;10.776;2022-12-20T14:30:27;8.77;;;7.75;;
52468;SDS011;38381;53.688;10.776;2022-12-20T14:35:33;9.75;;;7.47;;
52468;SDS011;38381;53.688;10.776;2022-12-20T14:40:39;10.98;;;8.27;;
52468;SDS011;38381;53.688;10.776;2022-12-20T14:45:41;10.88;;;9.20;;
52468;SDS011;38381;53.688;10.776;2022-12-20T14:50:50;8.57;;;7.65;;
52468;SDS011;38381;53.688;10.776;2022-12-20T14:55:52;9.20;;;7.32;;
52468;SDS011;38381;53.688;10.776;2022-12-20T15:00:57;10.15;;;8.18;;
52468;SDS011;38381;53.688;10.776;2022-12-20T15:05:59;11.48;;;7.53;;
52468;SDS011;38381;53.688;10.776;2022-12-20T15:16:16;7.30;;;6.47;;
52468;SDS011;38381;53.688;10.776;2022-12-20T15:21:34;8.90;;;7.97;;
52468;SDS011;38381;53.688;10.776;2022-12-20T15:26:39;12.13;;;8.98;;
52468;SDS011;38381;53.688;10.776;2022-12-20T15:31:40;8.27;;;6.68;;
52468;SDS011;38381;53.688;10.776;2022-12-20T15:36:40;9.63;;;8.23;;
52468;SDS011;38381;53.688;10.776;2022-12-20T15:41:45;8.82;;;8.02;;
52468;SDS011;38381;53.688;10.776;2022-12-20T15:46:47;7.47;;;6.78;;
52468;SDS011;38381;53.688;10.776;2022-12-20T15:51:50;8.40;;;7.07;;
52468;SDS011;38381;53.688;10.776;2022-12-20T15:56:58;9.25;;;7.65;;
52468;SDS011;38381;53.688;10.776;2022-12-20T16:07:21;11.77;;;8.90;;
52468;SDS011;38381;53.688;10.776;2022-12-20T16:12:25;8.75;;;7.85;;
52468;SDS011;38381;53.688;10.776;2022-12-20T16:17:29;6.88;;;6.18;;
52468;SDS011;38381;53.688;10.776;2022-12-20T16:22:29;9.05;;;7.55;;
52468;SDS011;38381;53.688;10.776;2022-12-20T16:27:30;9.52;;;7.25;;
52468;SDS011;38381;53.688;10.776;2022-12-20T16:32:31;8.15;;;6.90;;
52468;SDS011;38381;53.688;10.776;2022-12-20T16:37:31;10.98;;;7.90;;
52468;SDS011;38381;53.688;10.776;2022-12-20T16:42:32;10.02;;;8.85;;
52468;SDS011;38381;53.688;10.776;2022-12-20T16:47:32;10.40;;;8.90;;
52468;SDS011;38381;53.688;10.776;2022-12-20T16:52:32;10.40;;;7.13;;
52468;SDS011;38381;53.688;10.776;2022-12-20T16:57:36;12.88;;;7.25;;
52468;SDS011;38381;53.688;10.776;2022-12-20T17:02:37;9.95;;;8.00;;
52468;SDS011;38381;53.688;10.776;2022-12-20T17:07:37;11.32;;;8.60;;
52468;SDS011;38381;53.688;10.776;2022-12-20T17:12:37;16.15;;;11.77;;
52468;SDS011;38381;53.688;10.776;2022-12-20T17:17:38;10.23;;;7.78;;
52468;SDS011;38381;53.688;10.776;2022-12-20T17:22:38;8.13;;;7.22;;
52468;SDS011;38381;53.688;10.776;2022-12-20T17:27:39;9.30;;;8.00;;
52468;SDS011;38381;53.688;10.776;2022-12-20T17:32:42;8.93;;;7.55;;
52468;SDS011;38381;53.688;10.776;2022-12-20T17:37:42;10.25;;;7.13;;
52468;SDS011;38381;53.688;10.776;2022-12-20T17:42:42;9.20;;;7.03;;
52468;SDS011;38381;53.688;10.776;2022-12-20T17:47:43;11.07;;;8.03;;
52468;SDS011;38381;53.688;10.776;2022-12-20T17:52:44;10.00;;;8.33;;
52468;SDS011;38381;53.688;10.776;2022-12-20T17:57:45;8.70;;;7.55;;
52468;SDS011;38381;53.688;10.776;2022-12-20T18:02:45;9.30;;;8.13;;
52468;SDS011;38381;53.688;10.776;2022-12-20T18:07:50;9.18;;;8.25;;
52468;SDS011;38381;53.688;10.776;2022-12-20T18:12:51;9.55;;;7.65;;
52468;SDS011;38381;53.688;10.776;2022-12-20T18:17:52;19.88;;;9.45;;
52468;SDS011;38381;53.688;10.776;2022-12-20T18:22:52;11.60;;;7.82;;
52468;SDS011;38381;53.688;10.776;2022-12-20T18:27:53;9.75;;;7.63;;
52468;SDS011;38381;53.688;10.776;2022-12-20T18:32:53;9.10;;;8.20;;
52468;SDS011;38381;53.688;10.776;2022-12-20T18:37:53;9.90;;;8.90;;
52468;SDS011;38381;53.688;10.776;2022-12-20T18:42:54;9.18;;;7.82;;
52468;SDS011;38381;53.688;10.776;2022-12-20T18:47:54;10.38;;;8.13;;
52468;SDS011;38381;53.688;10.776;2022-12-20T18:52:55;8.38;;;7.30;;
52468;SDS011;38381;53.688;10.776;2022-12-20T18:57:55;9.53;;;8.53;;
52468;SDS011;38381;53.688;10.776;2022-12-20T19:02:57;10.10;;;7.45;;
52468;SDS011;38381;53.688;10.776;2022-12-20T19:07:59;8.32;;;7.45;;
52468;SDS011;38381;53.688;10.776;2022-12-20T19:13:00;17.65;;;7.18;;
52468;SDS011;38381;53.688;10.776;2022-12-20T19:18:00;9.55;;;6.85;;
52468;SDS011;38381;53.688;10.776;2022-12-20T19:23:01;7.38;;;6.35;;
52468;SDS011;38381;53.688;10.776;2022-12-20T19:28:02;11.70;;;7.60;;
52468;SDS011;38381;53.688;10.776;2022-12-20T19:33:03;8.68;;;6.53;;
52468;SDS011;38381;53.688;10.776;2022-12-20T19:38:03;6.90;;;6.13;;
52468;SDS011;38381;53.688;10.776;2022-12-20T19:43:06;9.73;;;7.60;;
52468;SDS011;38381;53.688;10.776;2022-12-20T19:48:06;10.73;;;7.80;;
52468;SDS011;38381;53.688;10.776;2022-12-20T19:53:07;10.13;;;8.20;;
52468;SDS011;38381;53.688;10.776;2022-12-20T19:58:09;9.70;;;7.78;;
52468;SDS011;38381;53.688;10.776;2022-12-20T20:03:09;8.97;;;7.33;;
52468;SDS011;38381;53.688;10.776;2022-12-20T20:08:10;9.10;;;8.10;;
52468;SDS011;38381;53.688;10.776;2022-12-20T20:13:10;9.23;;;7.85;;
52468;SDS011;38381;53.688;10.776;2022-12-20T20:18:10;9.83;;;8.43;;
52468;SDS011;38381;53.688;10.776;2022-12-20T20:23:12;10.70;;;8.45;;
52468;SDS011;38381;53.688;10.776;2022-12-20T20:28:13;9.05;;;8.15;;
52468;SDS011;38381;53.688;10.776;2022-12-20T20:33:14;9.25;;;7.88;;
52468;SDS011;38381;53.688;10.776;2022-12-20T20:38:15;8.95;;;7.95;;
52468;SDS011;38381;53.688;10.776;2022-12-20T20:43:16;11.60;;;9.93;;
52468;SDS011;38381;53.688;10.776;2022-12-20T20:48:16;13.88;;;9.70;;
52468;SDS011;38381;53.688;10.776;2022-12-20T20:53:17;12.45;;;9.93;;
52468;SDS011;38381;53.688;10.776;2022-12-20T20:58:18;12.65;;;10.55;;
52468;SDS011;38381;53.688;10.776;2022-12-20T21:03:18;13.20;;;11.07;;
52468;SDS011;38381;53.688;10.776;2022-12-20T21:08:19;13.68;;;11.68;;
52468;SDS011;38381;53.688;10.776;2022-12-20T21:13:20;14.02;;;12.18;;
52468;SDS011;38381;53.688;10.776;2022-12-20T21:18:21;17.23;;;12.10;;
52468;SDS011;38381;53.688;10.776;2022-12-20T21:23:22;14.20;;;11.55;;
52468;SDS011;38381;53.688;10.776;2022-12-20T21:28:22;15.80;;;14.13;;
52468;SDS011;38381;53.688;10.776;2022-12-20T21:33:23;18.52;;;13.05;;
52468;SDS011;38381;53.688;10.776;2022-12-20T21:38:23;15.60;;;12.40;;
52468;SDS011;38381;53.688;10.776;2022-12-20T21:43:24;15.90;;;14.30;;
52468;SDS011;38381;53.688;10.776;2022-12-20T21:48:25;15.40;;;13.75;;
52468;SDS011;38381;53.688;10.776;2022-12-20T21:53:26;15.38;;;12.93;;
52468;SDS011;38381;53.688;10.776;2022-12-20T21:58:28;14.93;;;13.10;;
52468;SDS011;38381;53.688;10.776;2022-12-20T22:03:30;13.65;;;12.00;;
52468;SDS011;38381;53.688;10.776;2022-12-20T22:08:31;13.02;;;11.55;;
52468;SDS011;38381;53.688;10.776;2022-12-20T22:13:32;15.27;;;12.85;;
52468;SDS011;38381;53.688;10.776;2022-12-20T22:18:34;16.17;;;14.32;;
52468;SDS011;38381;53.688;10.776;2022-12-20T22:23:35;15.27;;;13.65;;
52468;SDS011;38381;53.688;10.776;2022-12-20T22:28:36;14.32;;;12.63;;
52468;SDS011;38381;53.688;10.776;2022-12-20T22:33:38;14.20;;;12.75;;
52468;SDS011;38381;53.688;10.776;2022-12-20T22:38:38;17.38;;;11.80;;
52468;SDS011;38381;53.688;10.776;2022-12-20T22:43:40;14.40;;;12.77;;
52468;SDS011;38381;53.688;10.776;2022-12-20T22:48:42;12.75;;;11.45;;
52468;SDS011;38381;53.688;10.776;2022-12-20T22:53:44;13.93;;;12.43;;
52468;SDS011;38381;53.688;10.776;2022-12-20T22:58:44;12.82;;;11.40;;
52468;SDS011;38381;53.688;10.776;2022-12-20T23:03:45;13.07;;;11.63;;
52468;SDS011;38381;53.688;10.776;2022-12-20T23:08:46;12.80;;;11.40;;
52468;SDS011;38381;53.688;10.776;2022-12-20T23:13:48;14.57;;;12.52;;
52468;SDS011;38381;53.688;10.776;2022-12-20T23:19:07;11.63;;;10.43;;
52468;SDS011;38381;53.688;10.776;2022-12-20T23:24:07;11.50;;;10.30;;
52468;SDS011;38381;53.688;10.776;2022-12-20T23:29:08;13.02;;;11.65;;
52468;SDS011;38381;53.688;10.776;2022-12-20T23:34:10;13.43;;;9.73;;
52468;SDS011;38381;53.688;10.776;2022-12-20T23:39:10;12.27;;;9.52;;
52468;SDS011;38381;53.688;10.776;2022-12-20T23:44:11;11.60;;;10.23;;
52468;SDS011;38381;53.688;10.776;2022-12-20T23:49:11;10.03;;;8.93;;
52468;SDS011;38381;53.688;10.776;2022-12-20T23:54:11;10.43;;;9.33;;
52468;SDS011;38381;53.688;10.776;2022-12-20T23:59:12;9.57;;;8.60;;
